Habberton, Arkansas
Current Conditions -  °F | °C
As of 6:53 AM on Thursday 18 Dec 2014 (Local Time) from KFYV Reporting Station
Overcast Overcast  
Wind Chill: 36°   Ceiling: 1100
Heat Index: 36°   Visibility: 9mi
Dew Point: 35°   Wind: 0mph
Humidity: 97%   Direction: NA
Pressure: 30.16"   Gusts: NA
Location:  35.9902°N, 94.083°W
Report Text: KFYV 181253Z 00000KT 9SM OVC011 02/02 A3016 RMK AO2 SLP221 T00220017
Loading
Personal Weather Stations






























Interactive Weather Map New forecast layout! Learn more

10-Day Weather Forecast

Advertisements
Track Severe Weather on mobile